sensor_id;sensor_type;location;lat;lon;timestamp;pressure;altitude;pressure_sealevel;temperature;humidity
81865;BME280;71313;43.514;1.500;2024-03-06T00:02:23;100654.13;;;10.53;63.80
81865;BME280;71313;43.514;1.500;2024-03-06T00:04:49;100651.88;;;10.45;64.58
81865;BME280;71313;43.514;1.500;2024-03-06T00:07:15;100648.69;;;10.38;64.69
81865;BME280;71313;43.514;1.500;2024-03-06T00:09:41;100654.31;;;10.34;64.39
81865;BME280;71313;43.514;1.500;2024-03-06T00:12:06;100661.91;;;10.26;64.99
81865;BME280;71313;43.514;1.500;2024-03-06T00:14:32;100665.13;;;9.99;66.07
81865;BME280;71313;43.514;1.500;2024-03-06T00:16:57;100664.00;;;10.03;65.84
81865;BME280;71313;43.514;1.500;2024-03-06T00:19:25;100668.41;;;10.04;66.01
81865;BME280;71313;43.514;1.500;2024-03-06T00:21:51;100666.84;;;10.00;66.27
81865;BME280;71313;43.514;1.500;2024-03-06T00:24:17;100664.63;;;10.08;65.75
81865;BME280;71313;43.514;1.500;2024-03-06T00:26:44;100667.22;;;10.10;66.08
81865;BME280;71313;43.514;1.500;2024-03-06T00:29:10;100666.34;;;10.09;66.29
81865;BME280;71313;43.514;1.500;2024-03-06T00:31:36;100673.28;;;10.14;65.80
81865;BME280;71313;43.514;1.500;2024-03-06T00:34:03;100667.63;;;10.20;65.38
81865;BME280;71313;43.514;1.500;2024-03-06T00:36:29;100667.63;;;10.20;65.55
81865;BME280;71313;43.514;1.500;2024-03-06T00:38:55;100660.81;;;10.13;66.06
81865;BME280;71313;43.514;1.500;2024-03-06T00:41:22;100675.50;;;10.05;65.80
81865;BME280;71313;43.514;1.500;2024-03-06T00:43:50;100677.09;;;10.09;65.63
81865;BME280;71313;43.514;1.500;2024-03-06T00:46:16;100668.00;;;10.12;66.22
81865;BME280;71313;43.514;1.500;2024-03-06T00:48:42;100668.25;;;10.07;66.23
81865;BME280;71313;43.514;1.500;2024-03-06T00:51:08;100675.50;;;10.05;65.76
81865;BME280;71313;43.514;1.500;2024-03-06T00:53:35;100677.75;;;9.97;66.42
81865;BME280;71313;43.514;1.500;2024-03-06T00:56:02;100677.75;;;9.97;66.27
81865;BME280;71313;43.514;1.500;2024-03-06T00:58:27;100682.94;;;10.00;66.02
81865;BME280;71313;43.514;1.500;2024-03-06T01:00:53;100677.09;;;10.09;65.53
81865;BME280;71313;43.514;1.500;2024-03-06T01:03:19;100669.50;;;10.18;65.20
81865;BME280;71313;43.514;1.500;2024-03-06T01:05:45;100666.25;;;10.28;65.07
81865;BME280;71313;43.514;1.500;2024-03-06T01:08:13;100672.66;;;10.26;64.82
81865;BME280;71313;43.514;1.500;2024-03-06T01:10:41;100675.16;;;10.29;65.08
81865;BME280;71313;43.514;1.500;2024-03-06T01:13:08;100670.50;;;10.32;65.09
81865;BME280;71313;43.514;1.500;2024-03-06T01:15:36;100674.22;;;10.30;64.88
81865;BME280;71313;43.514;1.500;2024-03-06T01:18:01;100673.25;;;10.31;64.95
81865;BME280;71313;43.514;1.500;2024-03-06T01:20:28;100660.28;;;10.39;64.65
81865;BME280;71313;43.514;1.500;2024-03-06T01:22:54;100664.00;;;10.36;64.75
81865;BME280;71313;43.514;1.500;2024-03-06T01:25:29;100656.66;;;10.40;64.96
81865;BME280;71313;43.514;1.500;2024-03-06T01:27:55;100658.97;;;10.46;64.66
81865;BME280;71313;43.514;1.500;2024-03-06T01:30:21;100654.03;;;10.54;63.83
81865;BME280;71313;43.514;1.500;2024-03-06T01:32:48;100647.38;;;10.61;63.83
81865;BME280;71313;43.514;1.500;2024-03-06T01:35:13;100653.44;;;10.65;63.97
81865;BME280;71313;43.514;1.500;2024-03-06T01:37:39;100656.19;;;10.63;63.78
81865;BME280;71313;43.514;1.500;2024-03-06T01:40:05;100653.09;;;10.71;63.43
81865;BME280;71313;43.514;1.500;2024-03-06T01:42:32;100653.94;;;10.71;63.59
81865;BME280;71313;43.514;1.500;2024-03-06T01:44:57;100655.84;;;10.69;64.07
81865;BME280;71313;43.514;1.500;2024-03-06T01:47:24;100644.94;;;10.72;63.81
81865;BME280;71313;43.514;1.500;2024-03-06T01:49:50;100649.97;;;10.79;63.48
81865;BME280;71313;43.514;1.500;2024-03-06T01:52:17;100639.03;;;10.82;63.26
81865;BME280;71313;43.514;1.500;2024-03-06T01:54:44;100638.88;;;10.85;63.39
81865;BME280;71313;43.514;1.500;2024-03-06T01:57:14;100627.78;;;10.91;62.84
81865;BME280;71313;43.514;1.500;2024-03-06T01:59:42;100628.13;;;10.85;63.18
81865;BME280;71313;43.514;1.500;2024-03-06T02:02:07;100623.53;;;10.87;63.28
81865;BME280;71313;43.514;1.500;2024-03-06T02:04:37;100621.63;;;10.89;62.69
81865;BME280;71313;43.514;1.500;2024-03-06T02:07:03;100620.84;;;10.87;62.92
81865;BME280;71313;43.514;1.500;2024-03-06T02:09:30;100604.94;;;10.84;63.06
81865;BME280;71313;43.514;1.500;2024-03-06T02:11:57;100606.84;;;10.82;63.24
81865;BME280;71313;43.514;1.500;2024-03-06T02:14:23;100601.47;;;10.82;62.71
81865;BME280;71313;43.514;1.500;2024-03-06T02:16:48;100596.28;;;10.79;63.58
81865;BME280;71313;43.514;1.500;2024-03-06T02:19:14;100604.06;;;10.83;63.88
81865;BME280;71313;43.514;1.500;2024-03-06T02:21:41;100595.91;;;10.85;63.34
81865;BME280;71313;43.514;1.500;2024-03-06T02:24:08;100588.03;;;10.82;64.04
81865;BME280;71313;43.514;1.500;2024-03-06T02:26:38;100591.41;;;10.85;63.36
81865;BME280;71313;43.514;1.500;2024-03-06T02:29:03;100590.38;;;10.88;63.38
81865;BME280;71313;43.514;1.500;2024-03-06T02:31:31;100596.09;;;10.82;63.20
81865;BME280;71313;43.514;1.500;2024-03-06T02:33:56;100582.00;;;10.62;64.11
81865;BME280;71313;43.514;1.500;2024-03-06T02:36:25;100573.19;;;10.60;63.47
81865;BME280;71313;43.514;1.500;2024-03-06T02:38:52;100578.72;;;10.57;63.64
81865;BME280;71313;43.514;1.500;2024-03-06T02:41:18;100582.13;;;10.45;63.17
81865;BME280;71313;43.514;1.500;2024-03-06T02:43:43;100585.06;;;10.40;63.71
81865;BME280;71313;43.514;1.500;2024-03-06T02:46:09;100578.44;;;10.32;63.23
81865;BME280;71313;43.514;1.500;2024-03-06T02:48:35;100578.19;;;10.21;64.22
81865;BME280;71313;43.514;1.500;2024-03-06T02:51:01;100583.84;;;10.15;63.88
81865;BME280;71313;43.514;1.500;2024-03-06T02:53:27;100581.31;;;9.96;64.18
81865;BME280;71313;43.514;1.500;2024-03-06T02:55:54;100581.06;;;10.00;64.71
81865;BME280;71313;43.514;1.500;2024-03-06T02:58:21;100576.66;;;9.99;64.42
81865;BME280;71313;43.514;1.500;2024-03-06T03:00:46;100567.41;;;10.05;63.79
81865;BME280;71313;43.514;1.500;2024-03-06T03:03:12;100564.66;;;10.06;64.54
81865;BME280;71313;43.514;1.500;2024-03-06T03:05:38;100561.72;;;10.11;64.77
81865;BME280;71313;43.514;1.500;2024-03-06T03:08:06;100564.31;;;10.13;64.41
81865;BME280;71313;43.514;1.500;2024-03-06T03:10:34;100559.88;;;10.12;64.48
81865;BME280;71313;43.514;1.500;2024-03-06T03:13:00;100556.69;;;10.05;64.33
81865;BME280;71313;43.514;1.500;2024-03-06T03:15:25;100556.16;;;9.98;63.81
81865;BME280;71313;43.514;1.500;2024-03-06T03:17:51;100560.63;;;9.82;64.73
81865;BME280;71313;43.514;1.500;2024-03-06T03:20:18;100567.91;;;9.80;64.33
81865;BME280;71313;43.514;1.500;2024-03-06T03:22:43;100575.16;;;9.78;64.57
81865;BME280;71313;43.514;1.500;2024-03-06T03:25:13;100577.06;;;9.76;65.04
81865;BME280;71313;43.514;1.500;2024-03-06T03:27:40;100571.09;;;9.87;64.92
81865;BME280;71313;43.514;1.500;2024-03-06T03:30:12;100559.09;;;9.94;64.46
81865;BME280;71313;43.514;1.500;2024-03-06T03:32:38;100556.16;;;9.98;64.63
81865;BME280;71313;43.514;1.500;2024-03-06T03:35:06;100558.16;;;10.11;63.75
81865;BME280;71313;43.514;1.500;2024-03-06T03:37:32;100565.16;;;10.13;64.61
81865;BME280;71313;43.514;1.500;2024-03-06T03:39:58;100556.34;;;10.11;64.19
81865;BME280;71313;43.514;1.500;2024-03-06T03:42:23;100560.59;;;10.15;64.39
81865;BME280;71313;43.514;1.500;2024-03-06T03:44:49;100558.59;;;10.19;64.65
81865;BME280;71313;43.514;1.500;2024-03-06T03:47:15;100558.38;;;10.23;64.32
81865;BME280;71313;43.514;1.500;2024-03-06T03:49:41;100559.63;;;10.16;64.48
81865;BME280;71313;43.514;1.500;2024-03-06T03:52:07;100552.91;;;10.25;63.60
81865;BME280;71313;43.514;1.500;2024-03-06T03:54:33;100542.88;;;10.28;63.78
81865;BME280;71313;43.514;1.500;2024-03-06T03:56:59;100548.16;;;10.30;63.72
81865;BME280;71313;43.514;1.500;2024-03-06T03:59:25;100538.72;;;10.23;63.82
81865;BME280;71313;43.514;1.500;2024-03-06T04:01:51;100540.56;;;10.22;63.42
81865;BME280;71313;43.514;1.500;2024-03-06T04:04:16;100531.94;;;10.16;64.13
81865;BME280;71313;43.514;1.500;2024-03-06T04:06:42;100546.00;;;10.21;63.87
81865;BME280;71313;43.514;1.500;2024-03-06T04:09:08;100545.78;;;9.92;64.73
81865;BME280;71313;43.514;1.500;2024-03-06T04:11:40;100543.88;;;9.94;64.07
81865;BME280;71313;43.514;1.500;2024-03-06T04:14:07;100547.50;;;9.93;65.00
81865;BME280;71313;43.514;1.500;2024-03-06T04:16:33;100544.50;;;9.99;64.31
81865;BME280;71313;43.514;1.500;2024-03-06T04:19:00;100548.03;;;10.00;64.21
81865;BME280;71313;43.514;1.500;2024-03-06T04:21:26;100555.28;;;9.98;64.34
81865;BME280;71313;43.514;1.500;2024-03-06T04:23:51;100562.03;;;9.89;65.37
81865;BME280;71313;43.514;1.500;2024-03-06T04:26:17;100559.53;;;9.86;65.48
81865;BME280;71313;43.514;1.500;2024-03-06T04:28:43;100556.66;;;9.89;65.07
81865;BME280;71313;43.514;1.500;2024-03-06T04:31:10;100562.03;;;9.89;65.54
81865;BME280;71313;43.514;1.500;2024-03-06T04:33:35;100556.50;;;9.92;64.94
81865;BME280;71313;43.514;1.500;2024-03-06T04:36:04;100553.03;;;9.90;65.01
81865;BME280;71313;43.514;1.500;2024-03-06T04:38:33;100560.72;;;9.81;64.91
81865;BME280;71313;43.514;1.500;2024-03-06T04:40:59;100565.72;;;9.71;65.41
81865;BME280;71313;43.514;1.500;2024-03-06T04:43:25;100571.16;;;9.69;65.30
81865;BME280;71313;43.514;1.500;2024-03-06T04:45:52;100570.13;;;9.72;65.12
81865;BME280;71313;43.514;1.500;2024-03-06T04:48:17;100576.19;;;9.75;65.60
81865;BME280;71313;43.514;1.500;2024-03-06T04:50:43;100577.38;;;9.70;65.51
81865;BME280;71313;43.514;1.500;2024-03-06T04:53:10;100555.94;;;9.70;65.73
81865;BME280;71313;43.514;1.500;2024-03-06T04:55:36;100559.06;;;9.78;65.37
81865;BME280;71313;43.514;1.500;2024-03-06T04:58:02;100557.19;;;9.80;65.31
81865;BME280;71313;43.514;1.500;2024-03-06T05:00:30;100554.38;;;9.66;65.87
81865;BME280;71313;43.514;1.500;2024-03-06T05:02:55;100553.34;;;9.68;65.64
81865;BME280;71313;43.514;1.500;2024-03-06T05:05:21;100557.50;;;9.74;65.25
81865;BME280;71313;43.514;1.500;2024-03-06T05:07:47;100550.25;;;9.76;65.46
81865;BME280;71313;43.514;1.500;2024-03-06T05:10:13;100562.69;;;9.77;65.42
81865;BME280;71313;43.514;1.500;2024-03-06T05:12:40;100555.44;;;9.79;64.97
81865;BME280;71313;43.514;1.500;2024-03-06T05:15:05;100566.69;;;9.86;64.80
81865;BME280;71313;43.514;1.500;2024-03-06T05:17:31;100561.94;;;9.91;64.66
81865;BME280;71313;43.514;1.500;2024-03-06T05:19:57;100562.47;;;9.97;64.79
81865;BME280;71313;43.514;1.500;2024-03-06T05:22:23;100563.09;;;10.02;64.93
81865;BME280;71313;43.514;1.500;2024-03-06T05:24:49;100562.91;;;10.05;64.91
81865;BME280;71313;43.514;1.500;2024-03-06T05:27:14;100554.69;;;10.08;64.55
81865;BME280;71313;43.514;1.500;2024-03-06T05:29:42;100546.47;;;10.12;64.45
81865;BME280;71313;43.514;1.500;2024-03-06T05:32:08;100556.09;;;10.16;64.00
81865;BME280;71313;43.514;1.500;2024-03-06T05:34:34;100560.50;;;10.17;64.27
81865;BME280;71313;43.514;1.500;2024-03-06T05:37:00;100563.81;;;10.22;64.63
81865;BME280;71313;43.514;1.500;2024-03-06T05:39:26;100562.88;;;10.23;64.77
81865;BME280;71313;43.514;1.500;2024-03-06T05:41:54;100561.91;;;10.24;64.62
81865;BME280;71313;43.514;1.500;2024-03-06T05:44:20;100565.53;;;10.23;64.36
81865;BME280;71313;43.514;1.500;2024-03-06T05:46:46;100567.28;;;10.24;64.51
81865;BME280;71313;43.514;1.500;2024-03-06T05:49:13;100560.00;;;10.26;64.80
81865;BME280;71313;43.514;1.500;2024-03-06T05:51:40;100569.69;;;10.28;64.84
81865;BME280;71313;43.514;1.500;2024-03-06T05:54:06;100566.94;;;10.30;64.85
81865;BME280;71313;43.514;1.500;2024-03-06T05:56:35;100561.56;;;10.30;64.52
81865;BME280;71313;43.514;1.500;2024-03-06T05:59:00;100551.78;;;10.29;64.85
81865;BME280;71313;43.514;1.500;2024-03-06T06:01:31;100552.75;;;10.28;64.86
81865;BME280;71313;43.514;1.500;2024-03-06T06:03:56;100552.91;;;10.25;64.27
81865;BME280;71313;43.514;1.500;2024-03-06T06:06:22;100553.22;;;10.19;64.49
81865;BME280;71313;43.514;1.500;2024-03-06T06:08:48;100554.28;;;10.16;64.71
81865;BME280;71313;43.514;1.500;2024-03-06T06:11:14;100549.25;;;10.10;65.26
81865;BME280;71313;43.514;1.500;2024-03-06T06:13:41;100550.28;;;10.07;64.94
81865;BME280;71313;43.514;1.500;2024-03-06T06:16:07;100559.28;;;10.06;65.02
81865;BME280;71313;43.514;1.500;2024-03-06T06:18:32;100553.06;;;10.06;64.61
81865;BME280;71313;43.514;1.500;2024-03-06T06:20:58;100557.22;;;10.12;64.80
81865;BME280;71313;43.514;1.500;2024-03-06T06:23:24;100561.78;;;10.09;64.65
81865;BME280;71313;43.514;1.500;2024-03-06T06:25:50;100569.81;;;9.94;64.85
81865;BME280;71313;43.514;1.500;2024-03-06T06:28:15;100566.44;;;9.90;65.71
81865;BME280;71313;43.514;1.500;2024-03-06T06:30:41;100577.00;;;9.93;65.25
81865;BME280;71313;43.514;1.500;2024-03-06T06:33:07;100567.06;;;9.95;65.48
81865;BME280;71313;43.514;1.500;2024-03-06T06:35:33;100567.13;;;9.94;65.54
81865;BME280;71313;43.514;1.500;2024-03-06T06:38:00;100565.41;;;9.93;65.09
81865;BME280;71313;43.514;1.500;2024-03-06T06:40:25;100567.06;;;9.95;65.35
81865;BME280;71313;43.514;1.500;2024-03-06T06:42:53;100567.13;;;9.94;65.29
81865;BME280;71313;43.514;1.500;2024-03-06T06:45:21;100561.69;;;9.95;65.37
81865;BME280;71313;43.514;1.500;2024-03-06T06:47:48;100571.28;;;9.99;65.58
81865;BME280;71313;43.514;1.500;2024-03-06T06:50:14;100568.44;;;10.02;65.58
81865;BME280;71313;43.514;1.500;2024-03-06T06:52:39;100559.88;;;9.96;65.42
81865;BME280;71313;43.514;1.500;2024-03-06T06:55:06;100566.88;;;9.98;65.44
81865;BME280;71313;43.514;1.500;2024-03-06T06:57:34;100562.56;;;9.96;65.78
81865;BME280;71313;43.514;1.500;2024-03-06T07:00:01;100564.47;;;9.94;65.62
81865;BME280;71313;43.514;1.500;2024-03-06T07:02:36;100562.03;;;9.89;65.91
81865;BME280;71313;43.514;1.500;2024-03-06T07:05:04;100567.38;;;9.89;65.45
81865;BME280;71313;43.514;1.500;2024-03-06T07:07:31;100554.84;;;9.90;65.73
81865;BME280;71313;43.514;1.500;2024-03-06T07:09:56;100558.56;;;9.87;65.96
81865;BME280;71313;43.514;1.500;2024-03-06T07:12:22;100561.34;;;9.86;65.70
81865;BME280;71313;43.514;1.500;2024-03-06T07:14:48;100562.03;;;9.89;66.26
81865;BME280;71313;43.514;1.500;2024-03-06T07:17:14;100556.50;;;9.92;66.30
81865;BME280;71313;43.514;1.500;2024-03-06T07:19:40;100559.09;;;9.94;66.17
81865;BME280;71313;43.514;1.500;2024-03-06T07:22:07;100550.97;;;9.95;66.17
81865;BME280;71313;43.514;1.500;2024-03-06T07:24:32;100557.03;;;9.99;66.20
81865;BME280;71313;43.514;1.500;2024-03-06T07:26:59;100557.38;;;10.08;66.34
81865;BME280;71313;43.514;1.500;2024-03-06T07:29:26;100556.88;;;10.18;66.19
81865;BME280;71313;43.514;1.500;2024-03-06T07:31:53;100544.88;;;10.25;66.64
81865;BME280;71313;43.514;1.500;2024-03-06T07:34:19;100555.69;;;10.39;66.65
81865;BME280;71313;43.514;1.500;2024-03-06T07:36:46;100545.84;;;10.54;66.57
81865;BME280;71313;43.514;1.500;2024-03-06T07:39:15;100549.38;;;10.70;66.53
81865;BME280;71313;43.514;1.500;2024-03-06T07:41:41;100551.06;;;10.87;66.70
81865;BME280;71313;43.514;1.500;2024-03-06T07:44:07;100555.53;;;11.02;66.71
81865;BME280;71313;43.514;1.500;2024-03-06T07:46:34;100561.69;;;11.18;65.96
81865;BME280;71313;43.514;1.500;2024-03-06T07:48:59;100555.41;;;11.33;65.61
81865;BME280;71313;43.514;1.500;2024-03-06T07:51:25;100559.81;;;11.49;65.50
81865;BME280;71313;43.514;1.500;2024-03-06T07:53:52;100560.13;;;11.58;64.83
81865;BME280;71313;43.514;1.500;2024-03-06T07:56:19;100562.34;;;11.66;64.79
81865;BME280;71313;43.514;1.500;2024-03-06T07:58:44;100561.19;;;11.70;64.88
81865;BME280;71313;43.514;1.500;2024-03-06T08:01:11;100563.59;;;11.75;64.32
81865;BME280;71313;43.514;1.500;2024-03-06T08:03:39;100564.09;;;11.81;64.86
81865;BME280;71313;43.514;1.500;2024-03-06T08:06:05;100566.59;;;11.84;64.06
81865;BME280;71313;43.514;1.500;2024-03-06T08:08:31;100561.78;;;11.89;64.56
81865;BME280;71313;43.514;1.500;2024-03-06T08:10:56;100565.03;;;11.94;64.35
81865;BME280;71313;43.514;1.500;2024-03-06T08:13:22;100563.50;;;12.05;64.01
81865;BME280;71313;43.514;1.500;2024-03-06T08:15:48;100567.53;;;12.12;63.41
81865;BME280;71313;43.514;1.500;2024-03-06T08:18:13;100571.53;;;12.19;63.29
81865;BME280;71313;43.514;1.500;2024-03-06T08:20:40;100564.81;;;12.26;63.09
81865;BME280;71313;43.514;1.500;2024-03-06T08:23:07;100576.91;;;12.33;63.58
81865;BME280;71313;43.514;1.500;2024-03-06T08:25:33;100579.38;;;12.36;62.35
81865;BME280;71313;43.514;1.500;2024-03-06T08:27:58;100576.59;;;12.38;62.39
81865;BME280;71313;43.514;1.500;2024-03-06T08:30:24;100578.78;;;12.45;62.72
81865;BME280;71313;43.514;1.500;2024-03-06T08:32:50;100581.84;;;12.53;62.54
81865;BME280;71313;43.514;1.500;2024-03-06T08:35:16;100585.66;;;12.63;61.99
81865;BME280;71313;43.514;1.500;2024-03-06T08:37:43;100580.44;;;12.75;61.82
81865;BME280;71313;43.514;1.500;2024-03-06T08:40:10;100582.09;;;12.90;62.46
81865;BME280;71313;43.514;1.500;2024-03-06T08:42:40;100576.41;;;13.07;61.29
81865;BME280;71313;43.514;1.500;2024-03-06T08:45:06;100589.41;;;13.27;60.77
81865;BME280;71313;43.514;1.500;2024-03-06T08:47:33;100585.09;;;13.38;61.05
81865;BME280;71313;43.514;1.500;2024-03-06T08:49:58;100589.00;;;13.46;61.26
81865;BME280;71313;43.514;1.500;2024-03-06T08:52:24;100589.00;;;13.59;60.70
81865;BME280;71313;43.514;1.500;2024-03-06T08:54:49;100591.59;;;13.73;60.33
81865;BME280;71313;43.514;1.500;2024-03-06T08:57:14;100587.72;;;13.77;59.54
81865;BME280;71313;43.514;1.500;2024-03-06T08:59:41;100593.63;;;13.82;60.12
81865;BME280;71313;43.514;1.500;2024-03-06T09:04:38;100589.41;;;14.04;58.88
81865;BME280;71313;43.514;1.500;2024-03-06T09:07:03;100591.44;;;14.13;59.15
81865;BME280;71313;43.514;1.500;2024-03-06T09:09:29;100582.69;;;14.22;59.40
81865;BME280;71313;43.514;1.500;2024-03-06T09:11:54;100586.97;;;14.37;58.13
81865;BME280;71313;43.514;1.500;2024-03-06T09:14:20;100584.91;;;14.53;58.77
81865;BME280;71313;43.514;1.500;2024-03-06T09:16:48;100584.97;;;14.65;58.36
81865;BME280;71313;43.514;1.500;2024-03-06T09:19:13;100580.19;;;14.68;57.34
81865;BME280;71313;43.514;1.500;2024-03-06T09:21:38;100581.50;;;14.63;56.66
81865;BME280;71313;43.514;1.500;2024-03-06T09:24:04;100587.22;;;14.71;57.29
81865;BME280;71313;43.514;1.500;2024-03-06T09:26:29;100590.59;;;14.61;56.02
81865;BME280;71313;43.514;1.500;2024-03-06T09:28:55;100589.72;;;14.61;54.78
81865;BME280;71313;43.514;1.500;2024-03-06T09:31:20;100591.81;;;14.81;54.39
81865;BME280;71313;43.514;1.500;2024-03-06T09:33:46;100594.84;;;14.77;53.90
81865;BME280;71313;43.514;1.500;2024-03-06T09:36:12;100588.69;;;14.75;53.68
81865;BME280;71313;43.514;1.500;2024-03-06T09:38:39;100600.81;;;14.93;52.44
81865;BME280;71313;43.514;1.500;2024-03-06T09:41:06;100595.53;;;15.15;53.34
81865;BME280;71313;43.514;1.500;2024-03-06T09:43:32;100590.72;;;15.54;52.85
81865;BME280;71313;43.514;1.500;2024-03-06T09:45:58;100594.47;;;15.98;53.11
81865;BME280;71313;43.514;1.500;2024-03-06T09:48:23;100592.88;;;16.17;51.18
81865;BME280;71313;43.514;1.500;2024-03-06T09:50:49;100591.50;;;16.34;50.99
81865;BME280;71313;43.514;1.500;2024-03-06T09:53:18;100594.72;;;16.17;50.39
81865;BME280;71313;43.514;1.500;2024-03-06T09:55:46;100588.94;;;16.10;49.81
81865;BME280;71313;43.514;1.500;2024-03-06T09:58:11;100586.09;;;16.12;49.53
81865;BME280;71313;43.514;1.500;2024-03-06T10:00:38;100583.84;;;16.39;50.03
81865;BME280;71313;43.514;1.500;2024-03-06T10:03:03;100583.69;;;16.74;49.02
81865;BME280;71313;43.514;1.500;2024-03-06T10:05:31;100578.44;;;17.46;48.53
81865;BME280;71313;43.514;1.500;2024-03-06T10:07:59;100571.22;;;18.08;47.96
81865;BME280;71313;43.514;1.500;2024-03-06T10:10:25;100573.69;;;18.61;47.84
81865;BME280;71313;43.514;1.500;2024-03-06T10:12:52;100578.28;;;19.66;46.56
81865;BME280;71313;43.514;1.500;2024-03-06T10:15:17;100588.00;;;20.53;46.28
81865;BME280;71313;43.514;1.500;2024-03-06T10:17:43;100582.22;;;21.36;44.52
81865;BME280;71313;43.514;1.500;2024-03-06T10:20:21;100572.66;;;22.02;43.32
81865;BME280;71313;43.514;1.500;2024-03-06T10:22:52;100574.97;;;22.65;42.15
81865;BME280;71313;43.514;1.500;2024-03-06T10:25:22;100574.56;;;23.43;41.52
81865;BME280;71313;43.514;1.500;2024-03-06T10:28:08;100571.25;;;24.04;39.24
81865;BME280;71313;43.514;1.500;2024-03-06T10:30:35;100568.22;;;23.42;39.42
81865;BME280;71313;43.514;1.500;2024-03-06T10:33:02;100561.63;;;22.70;40.00
81865;BME280;71313;43.514;1.500;2024-03-06T10:35:28;100560.00;;;22.85;40.17
81865;BME280;71313;43.514;1.500;2024-03-06T10:37:54;100557.78;;;22.97;39.85
81865;BME280;71313;43.514;1.500;2024-03-06T10:40:22;100551.81;;;23.10;39.60
81865;BME280;71313;43.514;1.500;2024-03-06T10:42:48;100560.56;;;23.54;39.54
81865;BME280;71313;43.514;1.500;2024-03-06T10:45:15;100551.44;;;24.72;38.21
81865;BME280;71313;43.514;1.500;2024-03-06T10:47:45;100554.91;;;26.10;36.92
81865;BME280;71313;43.514;1.500;2024-03-06T10:50:14;100548.44;;;27.40;35.07
81865;BME280;71313;43.514;1.500;2024-03-06T10:52:40;100542.72;;;28.26;33.75
81865;BME280;71313;43.514;1.500;2024-03-06T10:55:07;100542.22;;;28.50;32.03
81865;BME280;71313;43.514;1.500;2024-03-06T10:57:36;100537.38;;;28.78;31.45
81865;BME280;71313;43.514;1.500;2024-03-06T11:00:02;100537.66;;;28.84;30.42
81865;BME280;71313;43.514;1.500;2024-03-06T11:02:27;100532.00;;;29.31;29.86
81865;BME280;71313;43.514;1.500;2024-03-06T11:04:53;100527.97;;;29.67;29.55
81865;BME280;71313;43.514;1.500;2024-03-06T11:07:19;100516.28;;;30.49;28.59
81865;BME280;71313;43.514;1.500;2024-03-06T11:09:45;100523.31;;;31.53;28.33
81865;BME280;71313;43.514;1.500;2024-03-06T11:12:32;100515.28;;;32.49;26.16
81865;BME280;71313;43.514;1.500;2024-03-06T11:14:57;100512.72;;;32.96;26.52
81865;BME280;71313;43.514;1.500;2024-03-06T11:17:25;100521.34;;;33.60;25.45
81865;BME280;71313;43.514;1.500;2024-03-06T11:28:25;100504.38;;;35.00;22.99
81865;BME280;71313;43.514;1.500;2024-03-06T11:33:53;100499.06;;;35.99;21.13
81865;BME280;71313;43.514;1.500;2024-03-06T11:36:27;100491.72;;;36.31;21.39
81865;BME280;71313;43.514;1.500;2024-03-06T11:38:58;100492.94;;;36.89;19.65
81865;BME280;71313;43.514;1.500;2024-03-06T11:41:29;100483.84;;;37.31;20.23
81865;BME280;71313;43.514;1.500;2024-03-06T11:44:01;100491.84;;;37.49;20.12
81865;BME280;71313;43.514;1.500;2024-03-06T11:46:42;100485.19;;;37.60;19.33
81865;BME280;71313;43.514;1.500;2024-03-06T11:49:18;100481.72;;;37.43;19.00
81865;BME280;71313;43.514;1.500;2024-03-06T11:51:46;100474.38;;;37.69;18.61
81865;BME280;71313;43.514;1.500;2024-03-06T11:54:14;100462.53;;;38.09;18.49
81865;BME280;71313;43.514;1.500;2024-03-06T11:56:40;100462.25;;;38.63;18.86
81865;BME280;71313;43.514;1.500;2024-03-06T11:59:06;100453.47;;;38.44;18.13
81865;BME280;71313;43.514;1.500;2024-03-06T12:01:33;100447.84;;;37.87;18.40
81865;BME280;71313;43.514;1.500;2024-03-06T12:04:01;100453.09;;;38.20;17.57
81865;BME280;71313;43.514;1.500;2024-03-06T12:06:27;100444.81;;;38.56;17.57
81865;BME280;71313;43.514;1.500;2024-03-06T12:08:56;100444.34;;;39.10;17.49
81865;BME280;71313;43.514;1.500;2024-03-06T12:11:21;100434.66;;;38.40;17.09
81865;BME280;71313;43.514;1.500;2024-03-06T12:13:49;100431.50;;;36.02;19.08
81865;BME280;71313;43.514;1.500;2024-03-06T12:16:15;100424.41;;;33.68;20.85
81865;BME280;71313;43.514;1.500;2024-03-06T12:18:41;100420.25;;;31.92;21.13
81865;BME280;71313;43.514;1.500;2024-03-06T12:21:06;100408.78;;;32.37;21.59
81865;BME280;71313;43.514;1.500;2024-03-06T12:23:32;100411.09;;;32.22;21.34
81865;BME280;71313;43.514;1.500;2024-03-06T12:26:04;100410.31;;;32.93;20.77
81865;BME280;71313;43.514;1.500;2024-03-06T12:28:30;100408.75;;;34.31;20.05
81865;BME280;71313;43.514;1.500;2024-03-06T12:30:55;100415.84;;;35.62;19.75
81865;BME280;71313;43.514;1.500;2024-03-06T12:33:23;100404.59;;;36.39;19.50
81865;BME280;71313;43.514;1.500;2024-03-06T12:36:02;100412.97;;;36.93;19.17
81865;BME280;71313;43.514;1.500;2024-03-06T12:38:29;100400.66;;;35.20;20.17
81865;BME280;71313;43.514;1.500;2024-03-06T12:41:00;100396.25;;;33.30;20.83
81865;BME280;71313;43.514;1.500;2024-03-06T12:43:26;100386.75;;;31.51;22.08
81865;BME280;71313;43.514;1.500;2024-03-06T12:45:52;100389.94;;;31.29;22.54
81865;BME280;71313;43.514;1.500;2024-03-06T12:48:24;100381.25;;;31.01;22.73
81865;BME280;71313;43.514;1.500;2024-03-06T12:50:51;100373.81;;;31.63;22.42
81865;BME280;71313;43.514;1.500;2024-03-06T12:53:21;100368.63;;;32.93;20.95
81865;BME280;71313;43.514;1.500;2024-03-06T12:55:49;100360.13;;;34.10;21.00
81865;BME280;71313;43.514;1.500;2024-03-06T12:58:17;100365.06;;;35.65;19.27
81865;BME280;71313;43.514;1.500;2024-03-06T13:00:42;100362.16;;;36.48;19.33
81865;BME280;71313;43.514;1.500;2024-03-06T13:03:10;100358.69;;;35.48;18.60
81865;BME280;71313;43.514;1.500;2024-03-06T13:05:38;100348.16;;;34.38;19.36